sensor_id;sensor_type;location;lat;lon;timestamp;temperature;humidity
55436;DHT22;41307;53.142;6.430;2022-10-16T04:41:45;11.90;99.90
55436;DHT22;41307;53.142;6.430;2022-10-16T04:48:35;12.20;99.90
55436;DHT22;41307;53.142;6.430;2022-10-16T11:27:19;18.60;99.90
55436;DHT22;41307;53.142;6.430;2022-10-16T11:55:22;17.50;99.90
55436;DHT22;41307;53.142;6.430;2022-10-16T11:58:35;18.10;99.90
55436;DHT22;41307;53.142;6.430;2022-10-16T12:19:32;18.90;99.90
55436;DHT22;41307;53.142;6.430;2022-10-16T12:32:34;17.70;99.90
55436;DHT22;41307;53.142;6.430;2022-10-16T12:35:35;17.50;99.90
55436;DHT22;41307;53.142;6.430;2022-10-16T12:39:06;17.10;99.90
55436;DHT22;41307;53.142;6.430;2022-10-16T12:45:40;16.80;99.90
55436;DHT22;41307;53.142;6.430;2022-10-16T12:48:25;16.60;99.90
55436;DHT22;41307;53.142;6.430;2022-10-16T13:03:43;16.50;99.90
55436;DHT22;41307;53.142;6.430;2022-10-16T13:29:12;16.60;99.90
55436;DHT22;41307;53.142;6.430;2022-10-16T13:32:14;16.50;99.90
55436;DHT22;41307;53.142;6.430;2022-10-16T13:34:53;16.50;99.90
55436;DHT22;41307;53.142;6.430;2022-10-16T13:37:46;16.40;99.90
55436;DHT22;41307;53.142;6.430;2022-10-16T13:50:46;16.50;99.90
55436;DHT22;41307;53.142;6.430;2022-10-16T13:53:20;16.80;99.90
55436;DHT22;41307;53.142;6.430;2022-10-16T13:55:57;16.60;99.90
55436;DHT22;41307;53.142;6.430;2022-10-16T13:58:33;16.60;99.90
55436;DHT22;41307;53.142;6.430;2022-10-16T14:01:45;16.60;99.90
55436;DHT22;41307;53.142;6.430;2022-10-16T14:04:52;16.60;99.90
55436;DHT22;41307;53.142;6.430;2022-10-16T14:11:45;16.50;99.90
55436;DHT22;41307;53.142;6.430;2022-10-16T14:18:32;16.40;99.90
55436;DHT22;41307;53.142;6.430;2022-10-16T14:32:26;16.10;99.90
55436;DHT22;41307;53.142;6.430;2022-10-16T14:45:39;14.90;99.90
55436;DHT22;41307;53.142;6.430;2022-10-16T14:49:53;15.70;99.90
55436;DHT22;41307;53.142;6.430;2022-10-16T14:55:43;15.50;99.90
55436;DHT22;41307;53.142;6.430;2022-10-16T14:58:26;15.50;99.90
55436;DHT22;41307;53.142;6.430;2022-10-16T15:01:14;15.40;99.90
55436;DHT22;41307;53.142;6.430;2022-10-16T15:06:51;15.40;99.90
55436;DHT22;41307;53.142;6.430;2022-10-16T15:09:43;15.40;99.90
55436;DHT22;41307;53.142;6.430;2022-10-16T15:15:56;15.30;99.90
55436;DHT22;41307;53.142;6.430;2022-10-16T15:19:00;15.10;99.90
55436;DHT22;41307;53.142;6.430;2022-10-16T15:33:14;16.20;99.90
55436;DHT22;41307;53.142;6.430;2022-10-16T15:36:08;14.60;99.90
55436;DHT22;41307;53.142;6.430;2022-10-16T15:39:04;15.50;99.90
55436;DHT22;41307;53.142;6.430;2022-10-16T15:41:54;15.00;99.90
55436;DHT22;41307;53.142;6.430;2022-10-16T15:45:43;15.00;99.90
55436;DHT22;41307;53.142;6.430;2022-10-16T15:48:12;14.90;99.90
55436;DHT22;41307;53.142;6.430;2022-10-16T15:50:57;14.80;99.90
55436;DHT22;41307;53.142;6.430;2022-10-16T15:59:38;14.60;99.90
55436;DHT22;41307;53.142;6.430;2022-10-16T16:02:13;14.60;99.90
55436;DHT22;41307;53.142;6.430;2022-10-16T16:05:01;14.80;99.90
55436;DHT22;41307;53.142;6.430;2022-10-16T16:08:13;14.40;99.90
55436;DHT22;41307;53.142;6.430;2022-10-16T16:14:10;13.90;99.90
55436;DHT22;41307;53.142;6.430;2022-10-16T16:16:51;14.50;99.90
55436;DHT22;41307;53.142;6.430;2022-10-16T16:19:34;14.10;99.90
55436;DHT22;41307;53.142;6.430;2022-10-16T16:22:18;14.20;99.90
55436;DHT22;41307;53.142;6.430;2022-10-16T16:25:08;13.70;99.90
55436;DHT22;41307;53.142;6.430;2022-10-16T16:28:04;13.90;99.90
55436;DHT22;41307;53.142;6.430;2022-10-16T16:30:36;13.80;99.90
55436;DHT22;41307;53.142;6.430;2022-10-16T16:36:15;13.60;99.90
55436;DHT22;41307;53.142;6.430;2022-10-16T16:38:49;13.40;99.90
55436;DHT22;41307;53.142;6.430;2022-10-16T16:41:57;14.20;99.90
55436;DHT22;41307;53.142;6.430;2022-10-16T16:44:47;13.30;99.90
55436;DHT22;41307;53.142;6.430;2022-10-16T16:47:19;13.20;99.90
55436;DHT22;41307;53.142;6.430;2022-10-16T16:49:53;12.70;99.90
55436;DHT22;41307;53.142;6.430;2022-10-16T16:52:50;12.70;99.90
55436;DHT22;41307;53.142;6.430;2022-10-16T16:55:27;12.90;99.90
55436;DHT22;41307;53.142;6.430;2022-10-16T16:57:55;12.90;99.90
55436;DHT22;41307;53.142;6.430;2022-10-16T17:00:59;12.80;99.90
55436;DHT22;41307;53.142;6.430;2022-10-16T17:04:38;12.70;99.90
55436;DHT22;41307;53.142;6.430;2022-10-16T17:07:24;12.60;99.90
55436;DHT22;41307;53.142;6.430;2022-10-16T17:10:30;12.50;99.90
55436;DHT22;41307;53.142;6.430;2022-10-16T17:13:12;12.50;99.90
55436;DHT22;41307;53.142;6.430;2022-10-16T17:15:46;12.10;99.90
55436;DHT22;41307;53.142;6.430;2022-10-16T17:18:36;12.30;99.90
55436;DHT22;41307;53.142;6.430;2022-10-16T17:21:43;12.30;99.90
55436;DHT22;41307;53.142;6.430;2022-10-16T17:24:59;12.20;99.90
55436;DHT22;41307;53.142;6.430;2022-10-16T17:27:55;12.10;99.90
55436;DHT22;41307;53.142;6.430;2022-10-16T17:34:47;12.10;99.90
55436;DHT22;41307;53.142;6.430;2022-10-16T17:37:18;12.00;99.90
55436;DHT22;41307;53.142;6.430;2022-10-16T17:40:04;11.50;99.90
55436;DHT22;41307;53.142;6.430;2022-10-16T17:43:04;12.00;99.90
55436;DHT22;41307;53.142;6.430;2022-10-16T17:45:50;12.30;99.90
55436;DHT22;41307;53.142;6.430;2022-10-16T17:48:19;11.90;99.90
55436;DHT22;41307;53.142;6.430;2022-10-16T17:51:00;11.20;99.90
55436;DHT22;41307;53.142;6.430;2022-10-16T17:53:59;11.80;99.90
55436;DHT22;41307;53.142;6.430;2022-10-16T17:56:48;11.90;99.90
55436;DHT22;41307;53.142;6.430;2022-10-16T17:59:32;11.80;99.90
55436;DHT22;41307;53.142;6.430;2022-10-16T18:02:09;11.80;99.90
55436;DHT22;41307;53.142;6.430;2022-10-16T18:04:51;11.70;99.90
55436;DHT22;41307;53.142;6.430;2022-10-16T18:07:36;12.70;99.90
55436;DHT22;41307;53.142;6.430;2022-10-16T18:10:15;12.40;99.90
55436;DHT22;41307;53.142;6.430;2022-10-16T18:23:53;11.60;99.90
55436;DHT22;41307;53.142;6.430;2022-10-16T18:26:24;11.60;99.90
55436;DHT22;41307;53.142;6.430;2022-10-16T18:28:57;11.60;99.90
55436;DHT22;41307;53.142;6.430;2022-10-16T18:31:44;11.50;99.90
55436;DHT22;41307;53.142;6.430;2022-10-16T18:41:07;11.50;99.90
55436;DHT22;41307;53.142;6.430;2022-10-16T18:43:50;10.80;99.90
55436;DHT22;41307;53.142;6.430;2022-10-16T18:46:22;11.50;99.90
55436;DHT22;41307;53.142;6.430;2022-10-16T18:48:51;11.40;99.90
55436;DHT22;41307;53.142;6.430;2022-10-16T18:52:00;11.40;99.90
55436;DHT22;41307;53.142;6.430;2022-10-16T18:54:29;12.10;99.90
55436;DHT22;41307;53.142;6.430;2022-10-16T18:56:58;11.40;99.90
55436;DHT22;41307;53.142;6.430;2022-10-16T18:59:41;11.30;99.90
55436;DHT22;41307;53.142;6.430;2022-10-16T19:02:23;12.40;99.90
55436;DHT22;41307;53.142;6.430;2022-10-16T19:04:55;10.90;99.90
55436;DHT22;41307;53.142;6.430;2022-10-16T19:07:31;11.30;99.90
55436;DHT22;41307;53.142;6.430;2022-10-16T19:10:26;11.80;99.90
55436;DHT22;41307;53.142;6.430;2022-10-16T19:13:01;11.40;99.90
55436;DHT22;41307;53.142;6.430;2022-10-16T19:15:30;11.30;99.90
55436;DHT22;41307;53.142;6.430;2022-10-16T19:18:12;11.40;99.90
55436;DHT22;41307;53.142;6.430;2022-10-16T19:20:55;11.50;99.90
55436;DHT22;41307;53.142;6.430;2022-10-16T19:24:10;11.40;99.90
55436;DHT22;41307;53.142;6.430;2022-10-16T19:26:59;11.40;99.90
55436;DHT22;41307;53.142;6.430;2022-10-16T19:29:25;11.40;99.90
55436;DHT22;41307;53.142;6.430;2022-10-16T19:34:28;11.50;99.90
55436;DHT22;41307;53.142;6.430;2022-10-16T19:37:01;11.40;99.90
55436;DHT22;41307;53.142;6.430;2022-10-16T19:39:37;11.40;99.90
55436;DHT22;41307;53.142;6.430;2022-10-16T19:42:08;11.40;99.90
55436;DHT22;41307;53.142;6.430;2022-10-16T19:44:42;12.00;99.90
55436;DHT22;41307;53.142;6.430;2022-10-16T19:47:15;11.50;99.90
55436;DHT22;41307;53.142;6.430;2022-10-16T19:49:44;11.40;99.90
55436;DHT22;41307;53.142;6.430;2022-10-16T19:52:24;12.10;99.90
55436;DHT22;41307;53.142;6.430;2022-10-16T19:55:02;11.70;99.90
55436;DHT22;41307;53.142;6.430;2022-10-16T19:57:37;11.40;99.90
55436;DHT22;41307;53.142;6.430;2022-10-16T20:00:07;11.40;99.90
55436;DHT22;41307;53.142;6.430;2022-10-16T20:02:34;11.40;99.90
55436;DHT22;41307;53.142;6.430;2022-10-16T20:05:03;12.00;99.90
55436;DHT22;41307;53.142;6.430;2022-10-16T20:07:29;11.40;99.90
55436;DHT22;41307;53.142;6.430;2022-10-16T20:09:58;11.50;99.90
55436;DHT22;41307;53.142;6.430;2022-10-16T20:12:24;11.40;99.90
55436;DHT22;41307;53.142;6.430;2022-10-16T20:14:50;11.40;99.90
55436;DHT22;41307;53.142;6.430;2022-10-16T20:17:15;11.40;99.90
55436;DHT22;41307;53.142;6.430;2022-10-16T20:19:41;11.50;99.90
55436;DHT22;41307;53.142;6.430;2022-10-16T20:22:07;11.40;99.90
55436;DHT22;41307;53.142;6.430;2022-10-16T20:24:33;11.50;99.90
55436;DHT22;41307;53.142;6.430;2022-10-16T20:26:58;11.40;99.90
55436;DHT22;41307;53.142;6.430;2022-10-16T20:29:25;11.40;99.90
55436;DHT22;41307;53.142;6.430;2022-10-16T20:31:51;11.30;99.90
55436;DHT22;41307;53.142;6.430;2022-10-16T20:34:16;11.50;99.90
55436;DHT22;41307;53.142;6.430;2022-10-16T20:36:42;11.50;99.90
55436;DHT22;41307;53.142;6.430;2022-10-16T20:39:10;11.50;99.90
55436;DHT22;41307;53.142;6.430;2022-10-16T20:41:38;10.90;99.90
55436;DHT22;41307;53.142;6.430;2022-10-16T20:44:04;11.60;99.90
55436;DHT22;41307;53.142;6.430;2022-10-16T20:46:31;11.50;99.90
55436;DHT22;41307;53.142;6.430;2022-10-16T20:48:57;11.50;99.90
55436;DHT22;41307;53.142;6.430;2022-10-16T20:51:26;11.50;99.90
55436;DHT22;41307;53.142;6.430;2022-10-16T20:53:57;11.60;99.90
55436;DHT22;41307;53.142;6.430;2022-10-16T20:56:24;11.60;99.90
55436;DHT22;41307;53.142;6.430;2022-10-16T20:58:51;11.60;99.90
55436;DHT22;41307;53.142;6.430;2022-10-16T21:01:19;12.10;99.90
55436;DHT22;41307;53.142;6.430;2022-10-16T21:03:54;11.60;99.90
55436;DHT22;41307;53.142;6.430;2022-10-16T21:06:20;11.60;99.90
55436;DHT22;41307;53.142;6.430;2022-10-16T21:08:46;11.60;99.90
55436;DHT22;41307;53.142;6.430;2022-10-16T21:11:17;11.60;99.90
55436;DHT22;41307;53.142;6.430;2022-10-16T21:13:44;11.60;99.90
55436;DHT22;41307;53.142;6.430;2022-10-16T21:16:13;11.60;99.90
55436;DHT22;41307;53.142;6.430;2022-10-16T21:18:40;11.70;99.90
55436;DHT22;41307;53.142;6.430;2022-10-16T21:21:08;11.60;99.90
55436;DHT22;41307;53.142;6.430;2022-10-16T21:23:35;11.50;99.90
55436;DHT22;41307;53.142;6.430;2022-10-16T21:26:01;11.60;99.90
55436;DHT22;41307;53.142;6.430;2022-10-16T21:28:31;12.50;99.90
55436;DHT22;41307;53.142;6.430;2022-10-16T21:30:57;11.70;99.90
55436;DHT22;41307;53.142;6.430;2022-10-16T21:33:24;11.70;99.90
55436;DHT22;41307;53.142;6.430;2022-10-16T21:35:49;11.70;99.90
55436;DHT22;41307;53.142;6.430;2022-10-16T21:38:15;11.70;99.90
55436;DHT22;41307;53.142;6.430;2022-10-16T21:40:41;11.80;99.90
55436;DHT22;41307;53.142;6.430;2022-10-16T21:43:06;11.70;99.90
55436;DHT22;41307;53.142;6.430;2022-10-16T21:45:33;11.80;99.90
55436;DHT22;41307;53.142;6.430;2022-10-16T21:47:59;11.80;99.90
55436;DHT22;41307;53.142;6.430;2022-10-16T21:50:25;11.90;99.90
55436;DHT22;41307;53.142;6.430;2022-10-16T21:52:50;11.80;99.90
55436;DHT22;41307;53.142;6.430;2022-10-16T21:55:16;12.40;99.90
55436;DHT22;41307;53.142;6.430;2022-10-16T21:57:42;11.80;99.90
55436;DHT22;41307;53.142;6.430;2022-10-16T22:00:08;11.80;99.90
55436;DHT22;41307;53.142;6.430;2022-10-16T22:02:34;11.80;99.90
55436;DHT22;41307;53.142;6.430;2022-10-16T22:05:01;11.60;99.90
55436;DHT22;41307;53.142;6.430;2022-10-16T22:07:26;11.80;99.90
55436;DHT22;41307;53.142;6.430;2022-10-16T22:09:52;12.30;99.90
55436;DHT22;41307;53.142;6.430;2022-10-16T22:12:18;11.80;99.90
55436;DHT22;41307;53.142;6.430;2022-10-16T22:14:45;12.20;99.90
55436;DHT22;41307;53.142;6.430;2022-10-16T22:17:11;11.80;99.90
55436;DHT22;41307;53.142;6.430;2022-10-16T22:19:37;12.30;99.90
55436;DHT22;41307;53.142;6.430;2022-10-16T22:22:05;11.90;99.90
55436;DHT22;41307;53.142;6.430;2022-10-16T22:24:31;11.90;99.90
55436;DHT22;41307;53.142;6.430;2022-10-16T22:26:57;12.00;99.90
55436;DHT22;41307;53.142;6.430;2022-10-16T22:29:23;12.00;99.90
55436;DHT22;41307;53.142;6.430;2022-10-16T22:31:52;12.10;99.90
55436;DHT22;41307;53.142;6.430;2022-10-16T22:34:18;12.10;99.90
55436;DHT22;41307;53.142;6.430;2022-10-16T22:36:44;12.10;99.90
55436;DHT22;41307;53.142;6.430;2022-10-16T22:39:12;12.20;99.90
55436;DHT22;41307;53.142;6.430;2022-10-16T22:41:38;12.20;99.90
55436;DHT22;41307;53.142;6.430;2022-10-16T22:44:04;12.80;99.90
55436;DHT22;41307;53.142;6.430;2022-10-16T22:46:30;12.20;99.90
55436;DHT22;41307;53.142;6.430;2022-10-16T22:48:56;12.20;99.90
55436;DHT22;41307;53.142;6.430;2022-10-16T22:51:23;12.20;99.90
55436;DHT22;41307;53.142;6.430;2022-10-16T22:53:49;12.20;99.90
55436;DHT22;41307;53.142;6.430;2022-10-16T22:56:17;12.20;99.90
55436;DHT22;41307;53.142;6.430;2022-10-16T22:58:43;12.30;99.90
55436;DHT22;41307;53.142;6.430;2022-10-16T23:01:21;12.30;99.90
55436;DHT22;41307;53.142;6.430;2022-10-16T23:03:47;12.30;99.90
55436;DHT22;41307;53.142;6.430;2022-10-16T23:06:13;12.30;99.90
55436;DHT22;41307;53.142;6.430;2022-10-16T23:08:39;12.30;99.90
55436;DHT22;41307;53.142;6.430;2022-10-16T23:11:10;12.30;99.90
55436;DHT22;41307;53.142;6.430;2022-10-16T23:13:39;12.20;99.90
55436;DHT22;41307;53.142;6.430;2022-10-16T23:16:10;12.90;99.90
55436;DHT22;41307;53.142;6.430;2022-10-16T23:18:37;12.60;99.90
55436;DHT22;41307;53.142;6.430;2022-10-16T23:21:07;12.20;99.90
55436;DHT22;41307;53.142;6.430;2022-10-16T23:23:35;12.20;99.90
55436;DHT22;41307;53.142;6.430;2022-10-16T23:26:01;12.20;99.90
55436;DHT22;41307;53.142;6.430;2022-10-16T23:28:26;12.10;99.90
55436;DHT22;41307;53.142;6.430;2022-10-16T23:30:52;12.10;99.90
55436;DHT22;41307;53.142;6.430;2022-10-16T23:33:18;12.00;99.90
55436;DHT22;41307;53.142;6.430;2022-10-16T23:35:43;12.00;99.90
55436;DHT22;41307;53.142;6.430;2022-10-16T23:38:09;11.90;99.90
55436;DHT22;41307;53.142;6.430;2022-10-16T23:40:35;11.90;99.90
55436;DHT22;41307;53.142;6.430;2022-10-16T23:43:00;11.80;99.90
55436;DHT22;41307;53.142;6.430;2022-10-16T23:45:26;11.70;99.90
55436;DHT22;41307;53.142;6.430;2022-10-16T23:47:52;11.70;99.90
55436;DHT22;41307;53.142;6.430;2022-10-16T23:50:18;11.70;99.90
55436;DHT22;41307;53.142;6.430;2022-10-16T23:52:43;11.60;99.90
55436;DHT22;41307;53.142;6.430;2022-10-16T23:55:09;11.80;99.90
55436;DHT22;41307;53.142;6.430;2022-10-16T23:57:35;11.50;99.90
